Time;durP1;ratioP1;P1;durP2;ratioP2;P2;SDS_P1;SDS_P2;PMS_P1;PMS_P2;Temp;Humidity;BMP_temperature;BMP_pressure;BME280_temperature;BME280_humidity;BME280_pressure;Samples;Min_cycle;Max_cycle;Signal;HPM_P1;HPM_P2
2022/04/28 00:00:41;;;;;;;10.77;9.67;;;9.50;99.90;;;;;;4997249;28;20454;-50
2022/04/28 00:03:09;;;;;;;12.07;9.80;;;9.50;99.90;;;;;;4997333;28;20451;-50
2022/04/28 00:05:37;;;;;;;10.90;9.80;;;9.50;99.90;;;;;;4996829;28;20479;-50
2022/04/28 00:08:05;;;;;;;9.53;8.60;;;9.40;99.90;;;;;;4997212;28;20562;-50
2022/04/28 00:10:34;;;;;;;11.03;8.80;;;9.40;99.90;;;;;;4997054;28;20479;-50
2022/04/28 00:13:01;;;;;;;11.27;9.77;;;9.30;99.90;;;;;;4996822;28;20487;-50
2022/04/28 00:15:29;;;;;;;10.30;9.00;;;9.10;99.90;;;;;;4996938;28;20528;-50
2022/04/28 00:17:57;;;;;;;9.60;8.70;;;9.10;99.90;;;;;;4996620;28;20978;-49
2022/04/28 00:20:24;;;;;;;11.23;10.07;;;9.20;99.90;;;;;;4997014;28;20456;-50
2022/04/28 00:22:52;;;;;;;9.43;8.53;;;9.20;99.90;;;;;;4996799;28;20458;-52
2022/04/28 00:25:20;;;;;;;11.63;10.53;;;9.20;99.90;;;;;;4996421;28;20523;-50
2022/04/28 00:27:49;;;;;;;10.03;9.03;;;9.10;99.90;;;;;;4996536;28;21054;-52
2022/04/28 00:30:17;;;;;;;10.13;9.07;;;9.20;99.90;;;;;;4996399;28;20539;-52
2022/04/28 00:32:45;;;;;;;12.43;10.17;;;9.20;99.90;;;;;;4996404;28;20452;-52
2022/04/28 00:35:12;;;;;;;11.57;10.50;;;9.20;99.90;;;;;;4996127;28;20479;-52
2022/04/28 00:37:40;;;;;;;11.30;10.20;;;9.20;99.90;;;;;;4996610;28;20475;-50
2022/04/28 00:40:08;;;;;;;11.40;10.30;;;9.10;99.90;;;;;;4996588;28;20514;-50
2022/04/28 00:42:35;;;;;;;11.60;10.07;;;9.10;99.90;;;;;;4996275;28;20455;-50
2022/04/28 00:45:04;;;;;;;13.73;10.23;;;9.10;99.90;;;;;;4996492;28;20846;-50
2022/04/28 00:52:59;;;;;;;10.43;9.43;;;9.00;99.90;;;;;;4995668;28;20487;-50
2022/04/28 00:55:29;;;;;;;11.37;10.27;;;9.00;99.90;;;;;;4996292;28;20448;-50
2022/04/28 00:57:56;;;;;;;13.13;10.00;;;9.00;99.90;;;;;;4995958;28;20467;-50
2022/04/28 01:00:24;;;;;;;10.93;9.93;;;9.00;99.90;;;;;;4995911;28;20451;-51
2022/04/28 01:02:53;;;;;;;10.87;9.80;;;9.00;99.90;;;;;;4995887;28;20428;-50
2022/04/28 01:05:20;;;;;;;12.13;10.70;;;8.70;99.90;;;;;;4995775;28;20574;-50
2022/04/28 01:07:48;;;;;;;10.57;9.47;;;8.80;99.90;;;;;;4996018;28;20476;-50
2022/04/28 01:10:15;;;;;;;10.83;9.83;;;8.90;99.90;;;;;;4996005;28;20573;-50
2022/04/28 01:12:43;;;;;;;11.87;10.63;;;8.80;99.90;;;;;;4995774;28;20542;-50
2022/04/28 01:15:11;;;;;;;10.00;9.00;;;8.70;99.90;;;;;;4995578;28;20452;-51
2022/04/28 01:17:39;;;;;;;10.10;8.83;;;8.70;99.90;;;;;;4995475;28;20538;-50
2022/04/28 01:20:08;;;;;;;10.47;9.47;;;8.60;99.90;;;;;;4995875;28;20487;-50
2022/04/28 01:22:38;;;;;;;12.20;10.43;;;;;;;;;;4995769;28;20816;-50
2022/04/28 01:25:08;;;;;;;10.77;9.80;;;8.60;99.90;;;;;;4995642;28;20575;-50
2022/04/28 01:27:36;;;;;;;10.73;9.63;;;8.70;99.90;;;;;;4995491;28;20451;-50
2022/04/28 01:30:04;;;;;;;12.07;10.43;;;8.70;99.90;;;;;;4995688;28;20783;-50
2022/04/28 01:32:31;;;;;;;12.63;10.00;;;8.70;99.90;;;;;;4995280;28;20487;-50
2022/04/28 01:34:58;;;;;;;11.17;10.17;;;8.60;99.90;;;;;;4995253;28;20455;-51
2022/04/28 01:37:26;;;;;;;10.17;9.10;;;8.60;99.90;;;;;;4995725;28;20440;-50
2022/04/28 01:39:56;;;;;;;11.37;10.20;;;8.60;99.90;;;;;;4995449;28;20452;-50
2022/04/28 01:42:24;;;;;;;9.67;8.77;;;8.70;99.90;;;;;;4995399;28;20444;-50
2022/04/28 01:44:51;;;;;;;11.93;10.73;;;8.70;99.90;;;;;;4995354;28;20456;-50
2022/04/28 01:47:19;;;;;;;11.90;10.70;;;8.70;99.90;;;;;;4995286;28;20459;-50
2022/04/28 01:49:46;;;;;;;14.63;11.10;;;8.60;99.90;;;;;;4995031;28;20438;-50
2022/04/28 01:54:59;;;;;;;10.23;9.23;;;8.50;99.90;;;;;;4995149;28;20417;-50
2022/04/28 01:57:27;;;;;;;14.30;10.67;;;8.40;99.90;;;;;;4995119;28;20538;-50
2022/04/28 01:59:54;;;;;;;12.10;10.47;;;8.30;99.90;;;;;;4994769;28;20456;-50
2022/04/28 02:02:22;;;;;;;11.37;10.33;;;8.30;99.90;;;;;;4994774;28;20456;-50
2022/04/28 02:04:49;;;;;;;10.20;9.20;;;8.30;99.90;;;;;;4994697;28;20444;-50
2022/04/28 02:07:16;;;;;;;12.60;10.50;;;8.40;99.90;;;;;;4994711;28;20973;-50
2022/04/28 02:09:44;;;;;;;11.60;10.40;;;8.40;99.90;;;;;;4994794;28;20486;-50
2022/04/28 02:12:13;;;;;;;14.20;12.03;;;8.30;99.90;;;;;;4994603;28;20454;-50
2022/04/28 02:14:41;;;;;;;11.00;10.00;;;8.40;99.90;;;;;;4994869;28;20844;-50
2022/04/28 02:17:08;;;;;;;12.43;10.57;;;8.20;99.90;;;;;;4994493;28;20958;-50
2022/04/28 02:19:36;;;;;;;11.40;10.30;;;8.10;99.90;;;;;;4994501;28;20451;-50
2022/04/28 02:22:03;;;;;;;11.07;9.87;;;8.20;99.90;;;;;;4994405;28;20448;-50
2022/04/28 02:24:30;;;;;;;13.73;9.30;;;8.10;99.90;;;;;;4994326;28;20448;-50
2022/04/28 02:26:57;;;;;;;10.43;9.40;;;8.10;99.90;;;;;;4994605;28;20492;-50
2022/04/28 02:29:26;;;;;;;10.83;9.83;;;8.20;99.90;;;;;;4994235;28;20476;-51
2022/04/28 02:31:53;;;;;;;11.80;10.13;;;8.20;99.90;;;;;;4994233;28;20448;-50
2022/04/28 02:34:20;;;;;;;11.20;10.20;;;8.20;99.90;;;;;;4994293;28;20448;-50
2022/04/28 02:36:48;;;;;;;10.33;9.33;;;8.10;99.90;;;;;;4994092;28;20484;-50
2022/04/28 02:39:17;;;;;;;10.20;9.23;;;8.20;99.90;;;;;;4994073;28;20459;-50
2022/04/28 02:41:45;;;;;;;11.10;9.77;;;8.20;99.90;;;;;;4994171;28;20997;-50
2022/04/28 02:44:13;;;;;;;12.47;11.23;;;8.00;99.90;;;;;;4994432;28;20455;-50
2022/04/28 02:46:42;;;;;;;11.60;10.10;;;8.00;99.90;;;;;;4993979;28;20522;-50
2022/04/28 02:49:14;;;;;;;11.20;10.03;;;8.10;99.90;;;;;;4994317;28;20472;-50
2022/04/28 02:51:42;;;;;;;10.70;9.60;;;8.10;99.90;;;;;;4994344;28;20539;-52
2022/04/28 02:54:10;;;;;;;11.43;10.27;;;8.10;99.90;;;;;;4993928;28;20452;-50
2022/04/28 02:56:37;;;;;;;11.63;10.10;;;8.00;99.90;;;;;;4994006;28;20428;-50
2022/04/28 02:59:05;;;;;;;10.43;9.50;;;8.00;99.90;;;;;;4993937;28;20474;-53
2022/04/28 03:01:32;;;;;;;11.70;10.50;;;8.00;99.90;;;;;;4994153;28;20447;-52
2022/04/28 03:04:00;;;;;;;10.23;9.23;;;7.90;99.90;;;;;;4993836;28;20456;-52
2022/04/28 03:11:57;;;;;;;11.77;10.30;;;7.80;99.90;;;;;;4993989;28;20462;-51
2022/04/28 03:14:24;;;;;;;11.83;10.63;;;7.90;99.90;;;;;;4994578;28;20452;-52
2022/04/28 03:16:52;;;;;;;15.20;11.20;;;7.90;99.90;;;;;;4997760;28;20864;-52
2022/04/28 03:19:20;;;;;;;11.33;10.07;;;7.80;99.90;;;;;;4997824;28;20479;-52
2022/04/28 03:21:47;;;;;;;14.10;10.90;;;7.70;99.90;;;;;;4998058;28;20510;-52
2022/04/28 03:24:14;;;;;;;12.80;10.37;;;7.80;99.90;;;;;;4997896;28;20454;-52
2022/04/28 03:26:42;;;;;;;11.73;10.40;;;7.80;99.90;;;;;;4997833;28;20479;-52
2022/04/28 03:29:09;;;;;;;12.67;11.13;;;7.70;99.90;;;;;;4997597;28;20971;-52
2022/04/28 03:31:36;;;;;;;12.47;10.67;;;7.60;99.90;;;;;;4997539;28;20455;-52
2022/04/28 03:34:03;;;;;;;12.20;10.83;;;7.70;99.90;;;;;;4997759;28;20451;-51
2022/04/28 03:39:16;;;;;;;11.90;10.73;;;7.70;99.90;;;;;;4997519;28;20470;-51
2022/04/28 03:41:44;;;;;;;14.00;12.37;;;7.70;99.90;;;;;;4997326;28;20943;-50
2022/04/28 03:44:11;;;;;;;12.63;11.33;;;7.70;99.90;;;;;;4997286;28;20538;-50
2022/04/28 03:46:38;;;;;;;11.93;10.73;;;7.70;99.90;;;;;;4997282;28;21021;-50
2022/04/28 03:49:05;;;;;;;12.57;11.27;;;7.60;99.90;;;;;;4997492;28;20993;-51
2022/04/28 03:51:34;;;;;;;12.67;11.07;;;7.70;99.90;;;;;;4997477;28;20451;-51
2022/04/28 03:54:01;;;;;;;12.00;10.60;;;7.70;99.90;;;;;;4997518;28;20456;-51
2022/04/28 03:56:31;;;;;;;12.10;10.80;;;7.70;99.90;;;;;;4997077;28;20443;-51
2022/04/28 03:58:58;;;;;;;11.00;9.93;;;7.60;99.90;;;;;;4997291;28;20574;-51
2022/04/28 04:01:26;;;;;;;12.53;11.23;;;7.40;99.90;;;;;;4997271;28;20451;-51
2022/04/28 04:03:53;;;;;;;15.67;11.57;;;7.50;99.90;;;;;;4997291;28;20530;-52
2022/04/28 04:06:20;;;;;;;11.70;10.60;;;7.60;99.90;;;;;;4996766;28;20526;-51
2022/04/28 04:08:50;;;;;;;12.40;11.10;;;7.60;99.90;;;;;;4996880;28;20866;-51
2022/04/28 04:11:17;;;;;;;10.90;9.97;;;7.70;99.90;;;;;;4996862;28;20451;-51
2022/04/28 04:13:45;;;;;;;12.10;10.90;;;7.70;99.90;;;;;;4997085;28;20550;-51
2022/04/28 04:16:12;;;;;;;13.03;11.60;;;7.70;99.90;;;;;;4997015;28;20443;-51
2022/04/28 04:18:40;;;;;;;12.40;11.10;;;7.60;99.90;;;;;;4997048;28;20887;-51
2022/04/28 04:21:07;;;;;;;12.30;11.10;;;7.60;99.90;;;;;;4996633;28;20452;-51
2022/04/28 04:23:34;;;;;;;11.80;10.60;;;7.70;99.90;;;;;;4996545;28;20543;-51
2022/04/28 04:26:03;;;;;;;13.07;11.63;;;7.60;99.90;;;;;;4996478;28;21001;-51
2022/04/28 04:28:31;;;;;;;10.40;9.40;;;7.70;99.90;;;;;;4996465;28;21058;-51
2022/04/28 04:33:43;;;;;;;13.50;11.80;;;7.40;99.90;;;;;;4996581;28;20766;-52
2022/04/28 04:36:10;;;;;;;11.53;10.33;;;7.30;99.90;;;;;;4996159;28;20887;-52
2022/04/28 04:38:37;;;;;;;12.20;10.87;;;7.40;99.90;;;;;;4996591;28;20562;-52
2022/04/28 04:41:10;;;;;;;12.37;11.07;;;7.50;99.90;;;;;;4996197;28;20489;-51
2022/04/28 04:43:37;;;;;;;12.03;10.73;;;7.50;99.90;;;;;;4996346;28;20424;-51
2022/04/28 04:46:05;;;;;;;14.50;11.20;;;7.50;99.90;;;;;;4996070;28;20882;-51
2022/04/28 04:48:33;;;;;;;17.93;12.07;;;7.50;99.90;;;;;;4996190;28;20899;-51
2022/04/28 04:51:02;;;;;;;11.63;10.43;;;7.40;99.90;;;;;;4996537;28;20480;-51
2022/04/28 04:53:30;;;;;;;12.50;11.30;;;7.60;99.90;;;;;;4996089;28;20543;-51
2022/04/28 04:55:57;;;;;;;11.73;10.57;;;7.70;99.90;;;;;;4996379;28;20456;-51
2022/04/28 04:58:26;;;;;;;14.23;12.60;;;7.70;99.90;;;;;;4995817;28;20471;-51
2022/04/28 05:00:54;;;;;;;12.07;10.80;;;7.60;99.90;;;;;;4995986;28;20831;-52
2022/04/28 05:03:21;;;;;;;15.80;11.40;;;7.70;99.90;;;;;;4996127;28;20456;-51
2022/04/28 05:05:48;;;;;;;12.90;11.70;;;7.70;99.90;;;;;;4995657;28;20487;-51
2022/04/28 05:08:16;;;;;;;11.40;10.30;;;7.70;99.90;;;;;;4996233;28;20484;-51
2022/04/28 05:10:43;;;;;;;14.23;11.07;;;7.70;99.90;;;;;;4995840;28;20487;-51
2022/04/28 05:13:11;;;;;;;11.73;10.23;;;7.70;99.90;;;;;;4995569;28;20943;-51
2022/04/28 05:15:39;;;;;;;12.50;11.30;;;7.70;99.90;;;;;;4995963;28;20822;-51
2022/04/28 05:18:07;;;;;;;14.00;12.57;;;7.80;99.90;;;;;;4995541;28;20835;-50
2022/04/28 05:20:34;;;;;;;12.13;10.90;;;7.80;99.90;;;;;;4995393;28;21025;-50
2022/04/28 05:23:01;;;;;;;14.33;11.00;;;7.80;99.90;;;;;;4995673;28;20539;-51
2022/04/28 05:25:29;;;;;;;12.23;10.00;;;7.80;99.90;;;;;;4995641;28;20793;-51
2022/04/28 05:27:56;;;;;;;13.47;12.00;;;7.80;99.90;;;;;;4995446;28;20571;-51
2022/04/28 05:30:24;;;;;;;15.03;12.50;;;7.90;99.90;;;;;;4995644;28;20872;-51
2022/04/28 05:32:53;;;;;;;12.37;11.07;;;7.90;99.90;;;;;;4995659;28;20510;-52
2022/04/28 05:35:21;;;;;;;16.77;12.63;;;8.00;99.90;;;;;;4995310;28;20510;-52
2022/04/28 05:37:48;;;;;;;14.17;12.47;;;8.10;99.90;;;;;;4994768;28;20484;-53
2022/04/28 05:40:16;;;;;;;13.20;11.77;;;8.10;99.90;;;;;;4995156;28;20942;-53
2022/04/28 05:45:46;;;;;;;14.07;12.47;;;8.30;99.90;;;;;;4995090;28;20411;-52
2022/04/28 05:48:16;;;;;;;17.77;12.07;;;8.40;99.90;;;;;;4994861;28;20499;-52
2022/04/28 05:50:43;;;;;;;14.27;12.77;;;8.40;99.90;;;;;;4995114;28;20440;-53
2022/04/28 05:53:11;;;;;;;15.13;13.07;;;8.50;99.90;;;;;;4994717;28;20505;-54
2022/04/28 05:55:39;;;;;;;13.13;11.83;;;8.60;99.90;;;;;;4994618;28;20455;-52
2022/04/28 05:58:07;;;;;;;14.60;12.90;;;8.60;99.90;;;;;;4994592;28;20963;-52
2022/04/28 06:00:35;;;;;;;13.93;12.53;;;8.70;99.90;;;;;;4994635;28;20862;-51
2022/04/28 06:03:03;;;;;;;12.70;11.43;;;8.80;99.90;;;;;;4994893;28;20484;-52
2022/04/28 06:05:31;;;;;;;14.13;11.67;;;8.90;99.90;;;;;;4994841;28;20452;-51
2022/04/28 06:07:59;;;;;;;15.83;12.70;;;9.00;99.90;;;;;;4994832;28;20877;-53
2022/04/28 06:10:26;;;;;;;15.53;13.03;;;9.10;99.90;;;;;;4994709;28;20448;-55
2022/04/28 06:12:53;;;;;;;20.67;12.63;;;9.20;99.90;;;;;;4994298;28;20518;-51
2022/04/28 06:15:21;;;;;;;18.27;11.90;;;9.20;99.90;;;;;;4994300;28;21013;-51
2022/04/28 06:17:48;;;;;;;16.00;13.00;;;9.30;99.90;;;;;;4994324;28;20503;-51
2022/04/28 06:20:15;;;;;;;15.73;13.13;;;9.40;99.90;;;;;;4994456;28;20998;-50
2022/04/28 06:22:44;;;;;;;15.73;11.40;;;9.50;99.90;;;;;;4994488;28;20515;-50
2022/04/28 06:25:11;;;;;;;14.67;10.97;;;9.50;99.90;;;;;;4994546;28;20919;-50
2022/04/28 06:27:39;;;;;;;13.90;12.50;;;9.70;99.90;;;;;;4994357;28;20488;-50
2022/04/28 06:30:07;;;;;;;13.57;11.97;;;9.80;99.90;;;;;;4994412;28;20452;-50
2022/04/28 06:32:35;;;;;;;18.60;12.10;;;10.00;99.90;;;;;;4994492;28;20456;-50
2022/04/28 06:35:02;;;;;;;12.87;11.43;;;10.10;99.90;;;;;;4993732;28;20943;-50
2022/04/28 06:37:30;;;;;;;13.70;10.63;;;10.20;99.90;;;;;;4994138;28;20467;-50
2022/04/28 06:39:58;;;;;;;16.57;11.83;;;10.20;99.90;;;;;;4994315;28;20543;-50
2022/04/28 06:42:26;;;;;;;12.13;10.93;;;10.20;99.90;;;;;;4993700;28;20496;-51
2022/04/28 06:44:53;;;;;;;11.90;10.70;;;10.30;99.90;;;;;;4993890;28;20575;-50
2022/04/28 06:47:21;;;;;;;14.47;10.57;;;10.40;99.90;;;;;;4993610;28;20566;-50
2022/04/28 06:49:48;;;;;;;13.83;10.30;;;10.40;99.90;;;;;;4993159;28;20515;-50
2022/04/28 06:52:15;;;;;;;13.50;10.67;;;10.50;99.90;;;;;;4993915;28;20459;-50
2022/04/28 06:54:43;;;;;;;11.83;10.63;;;10.60;99.90;;;;;;4993781;28;20452;-50
2022/04/28 06:57:11;;;;;;;10.47;9.37;;;10.70;99.90;;;;;;4993939;28;20483;-50
2022/04/28 06:59:39;;;;;;;15.37;10.37;;;10.70;99.90;;;;;;4993898;28;20551;-50
2022/04/28 07:02:06;;;;;;;12.70;8.63;;;10.90;99.90;;;;;;4993527;28;20985;-51
2022/04/28 07:04:33;;;;;;;11.03;9.73;;;11.00;99.90;;;;;;4993750;28;20444;-51
2022/04/28 07:07:00;;;;;;;11.63;8.30;;;11.00;99.90;;;;;;4993243;28;20582;-51
2022/04/28 07:09:28;;;;;;;11.03;9.93;;;11.00;99.90;;;;;;4993276;28;21089;-51
2022/04/28 07:11:55;;;;;;;10.20;9.20;;;11.00;99.90;;;;;;4993613;28;20648;-50
2022/04/28 07:14:23;;;;;;;10.17;9.17;;;11.10;99.90;;;;;;4993454;28;20617;-51
2022/04/28 07:16:51;;;;;;;11.70;10.07;;;11.20;99.90;;;;;;4993561;28;20495;-51
2022/04/28 07:19:18;;;;;;;11.70;9.33;;;11.20;99.90;;;;;;4993807;28;20559;-51
2022/04/28 07:21:46;;;;;;;11.30;10.20;;;11.40;99.90;;;;;;4993459;28;20535;-51
2022/04/28 07:24:13;;;;;;;9.57;8.67;;;11.40;99.90;;;;;;4993413;28;20959;-51
2022/04/28 07:26:40;;;;;;;10.87;9.63;;;11.50;99.90;;;;;;4993198;28;20935;-51
2022/04/28 07:29:07;;;;;;;9.73;8.73;;;11.40;99.90;;;;;;4993547;28;20468;-51
2022/04/28 07:31:37;;;;;;;13.13;9.20;;;11.50;99.90;;;;;;4993053;28;20814;-50
2022/04/28 07:34:04;;;;;;;9.80;8.80;;;11.60;99.90;;;;;;4993149;28;20448;-51
2022/04/28 07:36:31;;;;;;;9.37;8.40;;;11.80;99.90;;;;;;4992835;28;20480;-51
2022/04/28 07:38:59;;;;;;;13.70;8.90;;;11.90;99.90;;;;;;4993035;28;20546;-51
2022/04/28 07:41:28;;;;;;;10.60;9.60;;;11.90;99.90;;;;;;4993294;28;20452;-51
2022/04/28 07:43:56;;;;;;;8.90;8.00;;;11.90;99.90;;;;;;4993074;28;20456;-51
2022/04/28 07:46:23;;;;;;;13.23;8.93;;;11.90;99.90;;;;;;4993238;28;20963;-51
2022/04/28 07:48:52;;;;;;;11.13;10.03;;;12.00;99.90;;;;;;4993307;28;20546;-51
2022/04/28 07:51:19;;;;;;;12.70;7.90;;;12.10;99.90;;;;;;4993331;28;20452;-51
2022/04/28 07:53:46;;;;;;;9.70;8.47;;;12.20;99.90;;;;;;4993147;28;20551;-51
2022/04/28 07:56:18;;;;;;;8.63;7.73;;;12.40;99.90;;;;;;4993539;28;20451;-51
2022/04/28 07:58:46;;;;;;;10.17;7.87;;;12.60;99.90;;;;;;4993317;28;20489;-51
2022/04/28 08:01:14;;;;;;;10.17;8.20;;;12.90;99.90;;;;;;4994988;28;20543;-51
2022/04/28 08:03:41;;;;;;;9.83;8.83;;;13.80;99.90;;;;;;4996651;28;20547;-52
2022/04/28 08:06:13;;;;;;;8.60;7.20;;;15.20;99.90;;;;;;4996599;28;20539;-52
2022/04/28 08:08:41;;;;;;;9.70;8.13;;;16.50;99.90;;;;;;4996678;28;20523;-52
2022/04/28 08:11:08;;;;;;;7.63;6.90;;;17.10;99.90;;;;;;4996893;28;20452;-52
2022/04/28 08:13:37;;;;;;;8.50;6.33;;;17.90;99.90;;;;;;4996636;28;20542;-52
2022/04/28 08:16:04;;;;;;;6.67;5.97;;;19.10;98.90;;;;;;4996851;28;20502;-52
2022/04/28 08:18:32;;;;;;;6.70;6.10;;;19.40;97.90;;;;;;4996721;28;20499;-53
2022/04/28 08:21:01;;;;;;;6.70;6.10;;;19.20;95.20;;;;;;4996805;28;20565;-52
2022/04/28 08:23:30;;;;;;;6.73;6.13;;;19.20;95.20;;;;;;4996630;28;20510;-53
2022/04/28 08:25:59;;;;;;;10.10;6.70;;;19.70;95.10;;;;;;4996284;28;20448;-53
2022/04/28 08:28:27;;;;;;;9.33;5.97;;;19.50;94.20;;;;;;4996166;28;20502;-53
2022/04/28 08:30:54;;;;;;;6.73;6.13;;;19.30;92.10;;;;;;4996735;28;20868;-53
2022/04/28 08:33:21;;;;;;;5.80;5.20;;;19.70;92.20;;;;;;4996502;28;20483;-52
2022/04/28 08:35:49;;;;;;;6.90;6.30;;;19.40;92.40;;;;;;4995920;28;20506;-52
2022/04/28 08:38:17;;;;;;;6.20;5.50;;;19.60;92.40;;;;;;4996453;28;20476;-52
2022/04/28 08:40:49;;;;;;;5.90;5.17;;;20.50;91.70;;;;;;4996101;28;20874;-53
2022/04/28 08:43:17;;;;;;;5.90;5.37;;;20.50;89.10;;;;;;4996059;28;20914;-53
2022/04/28 08:48:40;;;;;;;6.70;6.10;;;20.30;87.90;;;;;;4996048;28;21053;-52
2022/04/28 08:51:10;;;;;;;5.83;5.33;;;20.00;87.10;;;;;;4995990;28;20462;-52
2022/04/28 08:53:38;;;;;;;6.30;5.40;;;20.00;88.10;;;;;;4996178;28;20476;-52
2022/04/28 08:56:07;;;;;;;7.20;6.10;;;20.60;89.10;;;;;;4996149;28;20506;-52
2022/04/28 08:58:35;;;;;;;5.17;4.67;;;21.40;86.90;;;;;;4995751;28;20468;-52
2022/04/28 09:01:02;;;;;;;6.53;5.40;;;21.20;85.70;;;;;;4995756;28;20953;-53
2022/04/28 09:03:29;;;;;;;6.90;5.20;;;21.20;80.50;;;;;;4995777;28;20538;-53
2022/04/28 09:05:58;;;;;;;5.70;5.20;;;21.50;85.40;;;;;;4995860;28;20555;-53
2022/04/28 09:08:26;;;;;;;7.50;6.10;;;22.10;80.70;;;;;;4995214;28;20496;-53
2022/04/28 09:10:54;;;;;;;7.03;5.20;;;21.60;76.90;;;;;;4995531;28;20460;-52
2022/04/28 09:16:17;;;;;;;6.43;4.97;;;22.60;75.60;;;;;;4971403;28;20428;-52
2022/04/28 09:18:44;;;;;;;5.50;4.60;;;21.60;71.80;;;;;;4995193;28;20500;-53
2022/04/28 09:21:11;;;;;;;7.23;5.03;;;22.10;73.60;;;;;;4995454;28;20526;-54
2022/04/28 09:23:40;;;;;;;4.27;3.50;;;21.80;68.10;;;;;;4995015;28;20530;-53
2022/04/28 09:26:08;;;;;;;5.00;4.00;;;22.20;65.90;;;;;;4995029;28;20953;-52
2022/04/28 09:28:37;;;;;;;4.27;3.83;;;22.00;61.00;;;;;;4995201;28;21006;-51
2022/04/28 09:31:09;;;;;;;4.23;3.83;;;20.20;59.70;;;;;;4995321;28;20510;-52
2022/04/28 09:33:39;;;;;;;5.13;3.80;;;20.50;63.70;;;;;;4995369;28;20437;-51
2022/04/28 09:36:09;;;;;;;5.43;3.67;;;21.40;61.90;;;;;;4994094;28;20483;-51
2022/04/28 09:38:36;;;;;;;3.73;3.40;;;21.70;59.50;;;;;;4994753;28;20966;-52
2022/04/28 09:43:50;;;;;;;4.70;4.30;;;22.10;57.60;;;;;;4994923;28;20769;-51
2022/04/28 09:46:22;;;;;;;4.80;4.30;;;21.90;58.80;;;;;;4995060;28;20456;-52
2022/04/28 09:48:51;;;;;;;5.93;3.60;;;22.10;59.40;;;;;;4994834;28;20491;-52
2022/04/28 09:51:23;;;;;;;3.63;3.33;;;22.50;58.40;;;;;;4994960;28;20907;-52
2022/04/28 09:53:51;;;;;;;4.17;3.77;;;23.00;57.80;;;;;;4994743;28;20440;-52
2022/04/28 09:56:24;;;;;;;3.70;3.40;;;23.20;58.50;;;;;;4995052;28;20536;-53
2022/04/28 09:58:53;;;;;;;3.90;3.60;;;23.30;55.70;;;;;;4995074;28;20468;-52
2022/04/28 10:01:20;;;;;;;5.17;3.57;;;22.50;56.00;;;;;;4994852;28;20531;-52
2022/04/28 10:03:48;;;;;;;3.87;3.53;;;22.70;56.60;;;;;;4994608;28;20452;-52
2022/04/28 10:06:16;;;;;;;5.40;3.60;;;22.20;54.60;;;;;;4994612;28;20521;-53
2022/04/28 10:08:44;;;;;;;4.40;4.00;;;22.40;57.30;;;;;;4994634;28;20571;-53
2022/04/28 10:11:19;;;;;;;4.20;3.80;;;23.30;56.40;;;;;;4994568;28;20925;-54
2022/04/28 10:13:48;;;;;;;6.60;4.27;;;23.70;53.70;;;;;;4994775;28;20514;-56
2022/04/28 10:16:19;;;;;;;3.87;3.57;;;23.50;53.40;;;;;;4994453;28;20479;-54
2022/04/28 10:18:51;;;;;;;5.60;3.47;;;22.50;52.60;;;;;;4994602;28;20472;-54
2022/04/28 10:21:25;;;;;;;4.20;3.50;;;22.70;51.70;;;;;;4994308;28;20515;-54
2022/04/28 10:32:57;;;;;;;5.00;3.77;;;22.80;52.70;;;;;;4994252;28;20411;-53
2022/04/28 10:35:36;;;;;;;4.40;3.50;;;22.60;52.20;;;;;;4994051;28;20480;-53
2022/04/28 10:38:21;;;;;;;3.80;3.50;;;22.70;53.20;;;;;;4994275;28;20471;-54
2022/04/28 10:41:00;;;;;;;4.03;3.43;;;23.40;53.50;;;;;;4994387;28;20428;-54
2022/04/28 10:43:29;;;;;;;4.20;3.43;;;24.10;52.80;;;;;;4994627;28;20435;-54
2022/04/28 10:45:58;;;;;;;3.50;3.20;;;24.30;50.50;;;;;;4994253;28;20452;-54
2022/04/28 10:48:35;;;;;;;3.70;3.40;;;24.20;51.60;;;;;;4993874;28;20573;-54
2022/04/28 10:51:06;;;;;;;3.40;3.10;;;24.50;51.80;;;;;;4994271;28;20514;-54
2022/04/28 10:53:35;;;;;;;5.47;4.07;;;24.60;51.40;;;;;;4993718;28;20432;-54
2022/04/28 10:56:13;;;;;;;4.10;3.80;;;24.00;50.50;;;;;;4994185;28;20452;-53
2022/04/28 10:58:40;;;;;;;4.60;3.20;;;24.10;50.80;;;;;;4993765;28;20463;-54
2022/04/28 11:01:07;;;;;;;4.43;4.03;;;23.90;49.50;;;;;;4993990;28;20506;-55
2022/04/28 11:03:48;;;;;;;3.63;3.33;;;23.60;49.90;;;;;;4993679;28;20550;-54
2022/04/28 11:06:16;;;;;;;4.10;3.70;;;24.20;51.20;;;;;;4993356;28;20461;-53
2022/04/28 11:08:48;;;;;;;3.97;3.57;;;24.70;50.40;;;;;;4993811;28;20858;-53
2022/04/28 11:11:16;;;;;;;4.23;3.83;;;24.70;51.40;;;;;;4993791;28;20864;-55
2022/04/28 11:13:56;;;;;;;4.17;3.77;;;25.10;49.80;;;;;;4993765;28;20780;-55
2022/04/28 11:16:23;;;;;;;3.77;3.47;;;24.60;48.60;;;;;;4993656;28;20906;-55
2022/04/28 11:18:53;;;;;;;4.53;3.97;;;23.70;49.10;;;;;;4993909;28;20519;-54
2022/04/28 11:21:21;;;;;;;3.73;3.43;;;23.40;48.60;;;;;;4994004;28;20459;-55
2022/04/28 11:23:51;;;;;;;5.53;3.73;;;23.50;49.40;;;;;;4993771;28;20543;-55
2022/04/28 11:26:21;;;;;;;4.13;3.83;;;23.20;50.30;;;;;;4993752;28;20499;-54
2022/04/28 11:28:49;;;;;;;5.33;3.83;;;24.10;50.70;;;;;;4993683;28;20499;-54
2022/04/28 11:31:18;;;;;;;4.33;3.80;;;23.60;49.50;;;;;;4993449;28;20487;-55
2022/04/28 11:33:48;;;;;;;4.70;3.40;;;23.90;50.00;;;;;;4993491;28;20578;-55
2022/04/28 11:36:19;;;;;;;3.70;3.40;;;23.60;48.40;;;;;;4995532;28;21061;-54
2022/04/28 11:38:51;;;;;;;3.60;3.30;;;23.90;49.20;;;;;;4997475;28;20981;-54
2022/04/28 11:41:31;;;;;;;5.13;4.60;;;24.10;51.90;;;;;;4997276;28;21009;-54
2022/04/28 11:44:07;;;;;;;3.93;3.10;;;24.50;49.90;;;;;;4997377;28;20436;-54
2022/04/28 11:46:46;;;;;;;3.70;3.40;;;24.60;49.00;;;;;;4997019;28;20862;-54
2022/04/28 11:49:14;;;;;;;5.97;4.27;;;24.70;48.60;;;;;;4997207;28;20488;-54
2022/04/28 11:51:42;;;;;;;4.20;3.90;;;24.70;50.10;;;;;;4997598;28;20490;-54
2022/04/28 11:54:20;;;;;;;3.57;3.27;;;25.10;47.90;;;;;;4996839;28;20487;-54
2022/04/28 11:56:48;;;;;;;4.10;3.70;;;24.60;47.60;;;;;;4997263;28;20511;-54
2022/04/28 11:59:15;;;;;;;4.90;3.37;;;24.00;48.10;;;;;;4996870;28;20468;-53
2022/04/28 12:01:44;;;;;;;4.23;3.60;;;23.60;49.00;;;;;;4997356;28;20456;-54
2022/04/28 12:04:12;;;;;;;5.13;3.37;;;24.00;47.40;;;;;;4997135;28;20542;-54
2022/04/28 12:06:42;;;;;;;3.63;3.33;;;23.90;47.50;;;;;;4996857;28;20463;-54
2022/04/28 12:14:42;;;;;;;3.30;2.93;;;24.10;47.70;;;;;;4996910;28;20432;-54
2022/04/28 12:19:56;;;;;;;4.00;3.63;;;23.50;47.60;;;;;;4996796;28;20455;-54
2022/04/28 12:22:32;;;;;;;6.37;3.90;;;23.40;48.00;;;;;;4996619;28;20480;-55
2022/04/28 12:25:07;;;;;;;3.60;3.30;;;23.40;48.10;;;;;;4996844;28;20439;-55
2022/04/28 12:27:48;;;;;;;4.30;4.00;;;23.30;48.30;;;;;;4996768;28;20490;-53
2022/04/28 12:30:18;;;;;;;3.53;3.23;;;22.90;47.00;;;;;;4996816;28;20548;-53
2022/04/28 12:32:49;;;;;;;3.80;3.50;;;23.00;48.60;;;;;;4996491;28;20518;-53
2022/04/28 12:35:27;;;;;;;4.93;3.90;;;23.20;47.90;;;;;;4996403;28;20574;-53
2022/04/28 12:37:59;;;;;;;4.60;2.90;;;23.20;46.90;;;;;;4996146;28;20475;-53
2022/04/28 12:40:36;;;;;;;4.10;3.70;;;23.70;47.50;;;;;;4996607;28;20483;-53
2022/04/28 12:43:03;;;;;;;3.67;3.37;;;23.40;47.20;;;;;;4996207;28;20986;-53
2022/04/28 12:45:41;;;;;;;4.60;3.57;;;23.40;47.20;;;;;;4996185;28;20591;-52
2022/04/28 12:48:22;;;;;;;7.00;3.27;;;23.00;47.00;;;;;;4996238;28;20479;-54
2022/04/28 12:50:50;;;;;;;7.43;3.00;;;23.10;47.30;;;;;;4996023;28;20470;-52
2022/04/28 12:53:32;;;;;;;4.40;4.00;;;23.00;46.30;;;;;;4996154;28;20466;-51
2022/04/28 12:56:06;;;;;;;4.90;3.47;;;22.90;47.60;;;;;;4996001;28;20527;-51
2022/04/28 12:58:37;;;;;;;3.27;3.07;;;23.10;47.10;;;;;;4996253;28;20491;-53
2022/04/28 13:01:04;;;;;;;3.70;3.40;;;23.10;47.00;;;;;;4995856;28;20442;-51
2022/04/28 13:03:31;;;;;;;3.60;3.40;;;22.40;47.40;;;;;;4996069;28;20535;-52
2022/04/28 13:05:59;;;;;;;6.03;3.97;;;22.60;48.70;;;;;;4995672;28;20452;-52
2022/04/28 13:08:26;;;;;;;3.70;3.30;;;22.80;46.90;;;;;;4995549;28;20472;-52
2022/04/28 13:10:54;;;;;;;5.63;3.60;;;22.60;46.30;;;;;;4995769;28;20506;-52
2022/04/28 13:13:22;;;;;;;4.20;3.53;;;23.50;49.90;;;;;;4996010;28;20452;-51
2022/04/28 13:15:50;;;;;;;3.27;3.07;;;23.60;46.90;;;;;;4995718;28;20432;-52
2022/04/28 13:18:17;;;;;;;3.53;3.23;;;22.90;45.80;;;;;;4995616;28;20471;-52
2022/04/28 13:20:44;;;;;;;3.27;3.07;;;23.60;47.80;;;;;;4995795;28;20455;-52
2022/04/28 13:23:12;;;;;;;5.30;3.50;;;23.60;46.70;;;;;;4995868;28;20448;-53
2022/04/28 13:25:39;;;;;;;3.90;3.60;;;22.50;46.40;;;;;;4995692;28;20455;-52
2022/04/28 13:28:06;;;;;;;3.77;3.47;;;22.30;45.50;;;;;;4995286;28;21028;-52
2022/04/28 13:30:40;;;;;;;3.97;3.50;;;22.40;47.20;;;;;;4995646;28;20515;-52
2022/04/28 13:33:08;;;;;;;3.20;2.90;;;22.50;46.50;;;;;;4995120;28;20452;-52
2022/04/28 13:35:36;;;;;;;4.00;3.70;;;22.50;46.80;;;;;;4995088;28;20487;-51
2022/04/28 13:38:08;;;;;;;3.67;3.37;;;23.00;46.90;;;;;;4994985;28;20486;-52